GRZ549 Details

Departure: Petersburg James A Johnson Airport (PAPG)
Arrival: Juneau International Airport (PAJN) at N/A
Route: GORBY4 ODECO R1050 STVNS
Notes:


Current Weather Information
PAPG 230856Z AUTO 24003KT 10SM OVC039 04/04 A3036 RMK AO2 SLP286 T00440044 400720039 58010
PAJN 230853Z 07009KT 10SM BKN050 OVC200 06/04 A3031 RMK SLP265 T00560044 400671017 58007 VIA AUTODIAL